createdAt,value
2023-05-05T00:02:24.664Z,99691.75
2023-05-05T00:04:52.661Z,99694.97
2023-05-05T00:07:20.012Z,99687.31
2023-05-05T00:09:48.754Z,99686.09
2023-05-05T00:12:16.265Z,99677.00
2023-05-05T00:14:43.634Z,99680.22
2023-05-05T00:17:11.405Z,99680.06
2023-05-05T00:19:38.863Z,99682.38
2023-05-05T00:22:06.283Z,99679.03
2023-05-05T00:24:33.751Z,99672.19
2023-05-05T00:27:03.553Z,99668.00
2023-05-05T00:29:31.563Z,99680.06
2023-05-05T00:31:59.180Z,99680.34
2023-05-05T00:34:26.450Z,99682.75
2023-05-05T00:36:54.072Z,99682.22
2023-05-05T00:39:21.480Z,99670.94
2023-05-05T00:41:48.887Z,99670.66
2023-05-05T00:44:17.654Z,99675.22
2023-05-05T00:46:45.651Z,99664.75
2023-05-05T00:49:13.433Z,99662.31
2023-05-05T00:51:41.079Z,99666.59
2023-05-05T00:54:08.773Z,99675.22
2023-05-05T00:56:36.900Z,99676.94
2023-05-05T00:59:04.538Z,99674.53
2023-05-05T01:01:33.457Z,99672.91
2023-05-05T01:04:00.817Z,99673.81
2023-05-05T01:06:42.300Z,99664.41
2023-05-05T01:09:24.699Z,99670.81
2023-05-05T01:12:01.398Z,99669.34
2023-05-05T01:14:39.776Z,99673.22
2023-05-05T01:17:16.398Z,99656.59
2023-05-05T01:20:01.686Z,99673.97
2023-05-05T01:22:38.424Z,99663.72
2023-05-05T01:25:49.152Z,99666.34
2023-05-05T01:28:39.601Z,99658.13
2023-05-05T01:31:17.946Z,99658.50
2023-05-05T01:33:52.500Z,99657.69
2023-05-05T01:36:28.684Z,99660.50
2023-05-05T01:38:59.578Z,99659.47
2023-05-05T01:41:30.756Z,99648.06
2023-05-05T01:44:03.266Z,99671.88
2023-05-05T01:46:33.264Z,99657.69
2023-05-05T01:49:02.723Z,99652.72
2023-05-05T01:51:33.207Z,99661.16
2023-05-05T01:54:04.610Z,99660.09
2023-05-05T01:56:33.146Z,99655.56
2023-05-05T01:59:02.103Z,99651.28
2023-05-05T02:01:30.573Z,99650.22
2023-05-05T02:03:59.397Z,99656.66
2023-05-05T02:06:32.488Z,99649.97
2023-05-05T02:09:01.600Z,99653.69
2023-05-05T02:11:29.895Z,99650.06
2023-05-05T02:16:27.290Z,99647.19
2023-05-05T02:18:57.262Z,99654.81
2023-05-05T02:21:24.743Z,99650.66
2023-05-05T02:23:53.356Z,99655.19
2023-05-05T02:26:23.638Z,99658.94
2023-05-05T02:28:58.743Z,99663.44
2023-05-05T02:33:57.071Z,99661.25
2023-05-05T02:36:29.247Z,99649.00
2023-05-05T02:39:11.064Z,99661.53
2023-05-05T02:41:41.519Z,99668.22
2023-05-05T02:44:19.315Z,99662.88
2023-05-05T02:46:47.417Z,99646.22
2023-05-05T02:49:15.691Z,99647.31
2023-05-05T02:51:43.526Z,99650.06
2023-05-05T02:54:21.421Z,99662.00
2023-05-05T02:56:51.141Z,99657.25
2023-05-05T02:59:27.998Z,99644.81
2023-05-05T03:02:10.902Z,99646.84
2023-05-05T03:04:42.785Z,99660.69
2023-05-05T03:07:14.482Z,99663.22
2023-05-05T03:09:56.037Z,99651.28
2023-05-05T03:12:31.511Z,99660.16
2023-05-05T03:15:14.498Z,99665.94
2023-05-05T03:17:44.410Z,99645.53
2023-05-05T03:20:14.676Z,99657.78
2023-05-05T03:22:45.527Z,99664.09
2023-05-05T03:25:15.800Z,99658.47
2023-05-05T03:27:43.174Z,99660.41
2023-05-05T03:30:14.126Z,99659.72
2023-05-05T03:32:48.661Z,99652.13
2023-05-05T03:35:16.511Z,99656.97
2023-05-05T03:37:43.731Z,99657.94
2023-05-05T03:40:13.149Z,99665.16
2023-05-05T03:42:42.739Z,99661.56
2023-05-05T03:45:10.966Z,99667.19
2023-05-05T03:47:39.752Z,99639.00
2023-05-05T03:50:09.016Z,99671.78
2023-05-05T03:52:36.942Z,99666.94
2023-05-05T03:55:04.834Z,99669.47
2023-05-05T03:57:33.075Z,99672.19
2023-05-05T04:00:02.032Z,99674.72
2023-05-05T04:02:30.509Z,99677.28
2023-05-05T04:04:57.801Z,99665.59
2023-05-05T04:07:25.237Z,99676.22
2023-05-05T04:09:53.153Z,99682.09
2023-05-05T04:12:21.022Z,99690.97
2023-05-05T04:14:48.336Z,99680.09
2023-05-05T04:17:17.361Z,99679.69
2023-05-05T04:19:45.099Z,99686.38
2023-05-05T04:22:13.344Z,99689.09
2023-05-05T04:24:40.993Z,99686.66
2023-05-05T04:27:08.341Z,99690.03
2023-05-05T04:29:36.262Z,99692.19
2023-05-05T04:32:03.988Z,99698.59
2023-05-05T04:34:33.095Z,99694.72
2023-05-05T04:37:00.783Z,99692.94
2023-05-05T04:39:28.196Z,99695.75
2023-05-05T04:41:55.475Z,99702.28
2023-05-05T04:44:23.069Z,99701.88
2023-05-05T04:46:50.623Z,99706.72
2023-05-05T04:49:17.928Z,99707.88
2023-05-05T04:51:46.899Z,99713.38
2023-05-05T04:54:14.038Z,99714.59
2023-05-05T04:56:41.267Z,99714.66
2023-05-05T04:59:10.036Z,99723.72
2023-05-05T05:01:38.589Z,99730.66
2023-05-05T05:04:06.254Z,99727.34
2023-05-05T05:06:34.076Z,99726.81
2023-05-05T05:09:02.803Z,99734.84
2023-05-05T05:11:30.099Z,99738.84
2023-05-05T05:13:57.376Z,99736.41
2023-05-05T05:16:25.401Z,99736.69
2023-05-05T05:18:53.024Z,99738.84
2023-05-05T05:21:20.699Z,99740.22
2023-05-05T05:23:48.219Z,99736.31
2023-05-05T05:26:16.996Z,99742.66
2023-05-05T05:28:44.705Z,99739.97
2023-05-05T05:31:12.626Z,99750.84
2023-05-05T05:33:39.984Z,99745.63
2023-05-05T05:36:07.933Z,99744.25
2023-05-05T05:38:36.141Z,99746.63
2023-05-05T05:41:08.071Z,99746.56
2023-05-05T05:43:38.423Z,99752.28
2023-05-05T05:46:08.820Z,99749.66
2023-05-05T05:48:38.363Z,99751.66
2023-05-05T05:51:05.828Z,99747.50
2023-05-05T05:53:33.532Z,99749.09
2023-05-05T05:56:01.643Z,99747.06
2023-05-05T05:58:29.500Z,99744.41
2023-05-05T06:00:59.979Z,99748.91
2023-05-05T06:03:28.285Z,99751.44
2023-05-05T06:05:56.138Z,99747.06
2023-05-05T06:08:25.055Z,99759.16
2023-05-05T06:10:54.056Z,99746.34
2023-05-05T06:13:22.074Z,99751.03
2023-05-05T06:15:51.322Z,99753.53
2023-05-05T06:18:20.269Z,99745.59
2023-05-05T06:20:50.052Z,99747.22
2023-05-05T06:23:18.157Z,99746.78
2023-05-05T06:25:51.309Z,99752.03
2023-05-05T06:28:18.901Z,99747.34
2023-05-05T06:30:46.298Z,99747.22
2023-05-05T06:33:13.800Z,99750.72
2023-05-05T06:35:42.527Z,99744.94
2023-05-05T06:38:09.926Z,99743.91
2023-05-05T06:40:37.075Z,99747.19
2023-05-05T06:43:04.405Z,99752.03
2023-05-05T06:45:36.826Z,99760.63
2023-05-05T06:48:04.528Z,99762.34
2023-05-05T06:50:32.185Z,99763.25
2023-05-05T06:53:01.482Z,99768.53
2023-05-05T06:55:28.890Z,99763.47
2023-05-05T06:57:56.176Z,99773.31
2023-05-05T07:00:23.890Z,99780.19
2023-05-05T07:02:51.246Z,99776.72
2023-05-05T07:05:18.738Z,99775.56
2023-05-05T07:07:52.812Z,99779.66
2023-05-05T07:10:22.719Z,99783.72
2023-05-05T07:12:50.415Z,99788.34
2023-05-05T07:15:28.134Z,99790.78
2023-05-05T07:17:57.161Z,99799.53
2023-05-05T07:20:24.807Z,99795.53
2023-05-05T07:22:53.124Z,99792.06
2023-05-05T07:25:22.063Z,99796.00
2023-05-05T07:27:49.484Z,99801.88
2023-05-05T07:30:18.765Z,99792.34
2023-05-05T07:32:47.192Z,99786.47
2023-05-05T07:35:14.539Z,99794.84
2023-05-05T07:37:41.701Z,99788.59
2023-05-05T07:40:09.898Z,99786.81
2023-05-05T07:42:39.218Z,99788.97
2023-05-05T07:45:07.552Z,99790.78
2023-05-05T07:47:34.972Z,99784.19
2023-05-05T07:50:02.361Z,99805.38
2023-05-05T07:52:44.117Z,99801.66
2023-05-05T07:55:13.659Z,99803.19
2023-05-05T07:57:42.298Z,99805.66
2023-05-05T08:00:11.021Z,99817.25
2023-05-05T08:02:42.015Z,99813.03
2023-05-05T08:05:09.768Z,99813.00
2023-05-05T08:07:41.738Z,99822.19
2023-05-05T08:10:10.742Z,99821.97
2023-05-05T08:12:38.251Z,99822.94
2023-05-05T08:15:08.760Z,99832.94
2023-05-05T08:17:47.570Z,99826.16
2023-05-05T08:20:15.336Z,99844.63
2023-05-05T08:22:43.179Z,99847.13
2023-05-05T08:25:11.295Z,99850.47
2023-05-05T08:27:39.346Z,99856.25
2023-05-05T08:30:12.046Z,99858.53
2023-05-05T08:32:39.959Z,99852.38
2023-05-05T08:35:08.314Z,99858.69
2023-05-05T08:37:36.254Z,99860.03
2023-05-05T08:40:04.743Z,99864.97
2023-05-05T08:42:37.023Z,99869.94
2023-05-05T08:45:10.365Z,99874.53
2023-05-05T08:47:39.452Z,99879.75
2023-05-05T08:50:10.712Z,99873.44
2023-05-05T08:52:40.959Z,99871.44
2023-05-05T08:55:15.546Z,99869.97
2023-05-05T08:57:50.240Z,99880.44
2023-05-05T09:00:21.041Z,99875.88
2023-05-05T09:02:48.865Z,99883.25
2023-05-05T09:05:17.172Z,99881.25
2023-05-05T09:07:44.814Z,99888.50
2023-05-05T09:10:12.839Z,99894.94
2023-05-05T09:12:42.988Z,99891.84
2023-05-05T09:15:12.167Z,99899.22
2023-05-05T09:17:41.985Z,99892.97
2023-05-05T09:20:14.056Z,99903.09
2023-05-05T09:23:51.010Z,99917.31
2023-05-05T09:26:18.633Z,99883.03
2023-05-05T09:28:52.855Z,99904.75
2023-05-05T09:31:20.307Z,99908.97
2023-05-05T09:33:49.322Z,99900.16
2023-05-05T09:36:16.661Z,99908.22
2023-05-05T09:39:04.550Z,99892.28
2023-05-05T09:41:38.788Z,99896.63
2023-05-05T09:44:06.361Z,99897.44
2023-05-05T09:46:34.234Z,99888.34
2023-05-05T09:49:20.563Z,99901.66
2023-05-05T09:51:48.482Z,99899.50
2023-05-05T09:54:23.822Z,99899.91
2023-05-05T09:56:52.412Z,99901.50
2023-05-05T09:59:20.321Z,99900.91
2023-05-05T10:01:48.949Z,99899.91
2023-05-05T10:04:29.927Z,99885.72
2023-05-05T10:06:58.584Z,99893.63
2023-05-05T10:09:28.408Z,99890.25
2023-05-05T10:11:58.188Z,99882.22
2023-05-05T10:14:27.210Z,99902.88
2023-05-05T10:16:56.041Z,99901.88
2023-05-05T10:19:24.551Z,99898.72
2023-05-05T10:21:54.727Z,99899.38
2023-05-05T10:24:30.804Z,99893.59
2023-05-05T10:27:00.161Z,99895.69
2023-05-05T10:29:37.131Z,99901.59
2023-05-05T10:32:33.465Z,99907.66
2023-05-05T10:35:01.582Z,99902.06
2023-05-05T10:37:33.925Z,99903.78
2023-05-05T10:40:02.261Z,99906.31
2023-05-05T10:42:32.418Z,99907.50
2023-05-05T10:44:59.766Z,99904.44
2023-05-05T10:47:28.732Z,99898.00
2023-05-05T10:50:02.525Z,99889.94
2023-05-05T10:52:37.520Z,99892.78
2023-05-05T10:55:13.925Z,99903.00
2023-05-05T10:57:43.991Z,99895.75
2023-05-05T11:00:49.161Z,99895.22
2023-05-05T11:03:21.908Z,99899.53
2023-05-05T11:06:12.685Z,99905.56
2023-05-05T11:08:43.060Z,99903.81
2023-05-05T11:11:11.482Z,99903.53
2023-05-05T11:13:40.077Z,99901.22
2023-05-05T11:16:51.361Z,99893.84
2023-05-05T11:19:47.854Z,99899.47
2023-05-05T11:22:16.650Z,99891.94
2023-05-05T11:24:45.875Z,99900.00
2023-05-05T11:27:16.007Z,99905.13
2023-05-05T11:30:07.005Z,99887.69
2023-05-05T11:32:36.109Z,99900.06
2023-05-05T11:35:04.238Z,99890.66
2023-05-05T11:37:32.549Z,99894.16
2023-05-05T11:40:16.726Z,99889.03
2023-05-05T11:42:44.145Z,99893.63
2023-05-05T11:45:22.611Z,99897.63
2023-05-05T11:47:50.466Z,99892.66
2023-05-05T11:50:21.004Z,99890.66
2023-05-05T11:52:48.775Z,99888.22
2023-05-05T11:55:23.718Z,99895.63
2023-05-05T11:57:51.330Z,99896.56
2023-05-05T12:00:19.345Z,99895.47
2023-05-05T12:02:47.149Z,99893.63
2023-05-05T12:05:20.582Z,99900.34
2023-05-05T12:07:48.389Z,99893.06
2023-05-05T12:10:25.027Z,99890.13
2023-05-05T12:12:55.475Z,99892.00
2023-05-05T12:15:30.768Z,99893.47
2023-05-05T12:18:00.127Z,99880.00
2023-05-05T12:20:31.814Z,99898.50
2023-05-05T12:23:04.151Z,99880.34
2023-05-05T12:25:39.791Z,99888.50
2023-05-05T12:28:08.813Z,99884.19
2023-05-05T12:30:36.333Z,99886.03
2023-05-05T12:33:04.981Z,99888.03
2023-05-05T12:35:33.451Z,99885.53
2023-05-05T12:38:00.862Z,99883.63
2023-05-05T12:40:47.490Z,99858.91
2023-05-05T12:43:29.560Z,99884.88
2023-05-05T12:46:01.951Z,99885.59
2023-05-05T12:51:54.815Z,99892.47
2023-05-05T12:54:29.597Z,99886.81
2023-05-05T12:56:58.927Z,99881.22
2023-05-05T12:59:30.298Z,99884.78
2023-05-05T13:02:00.181Z,99889.34
2023-05-05T13:04:29.156Z,99892.34
2023-05-05T13:07:11.283Z,99882.53
2023-05-05T13:09:38.951Z,99885.81
2023-05-05T13:12:14.237Z,99878.25
2023-05-05T13:14:42.058Z,99871.28
2023-05-05T13:17:11.084Z,99867.63
2023-05-05T13:19:42.664Z,99881.75
2023-05-05T13:22:10.539Z,99880.81
2023-05-05T13:24:47.120Z,99877.75
2023-05-05T13:27:19.315Z,99892.59
2023-05-05T13:29:46.868Z,99893.44
2023-05-05T13:32:14.436Z,99882.53
2023-05-05T13:34:43.665Z,99888.25
2023-05-05T13:37:11.215Z,99894.00
2023-05-05T13:39:38.660Z,99871.94
2023-05-05T13:42:06.266Z,99875.84
2023-05-05T13:44:35.759Z,99881.00
2023-05-05T13:47:03.407Z,99877.16
2023-05-05T13:49:30.808Z,99873.28
2023-05-05T13:51:58.608Z,99871.63
2023-05-05T13:54:26.225Z,99874.22
2023-05-05T13:56:53.751Z,99868.88
2023-05-05T13:59:21.944Z,99868.72
2023-05-05T14:02:28.118Z,99855.28
2023-05-05T14:04:57.223Z,99860.56
2023-05-05T14:07:31.197Z,99866.97
2023-05-05T14:11:03.975Z,99865.06
2023-05-05T14:13:31.575Z,99858.25
2023-05-05T14:15:59.001Z,99857.72
2023-05-05T14:18:28.413Z,99861.16
2023-05-05T14:21:02.706Z,99859.13
2023-05-05T14:23:30.149Z,99852.41
2023-05-05T14:25:57.865Z,99852.06
2023-05-05T14:28:25.146Z,99854.25
2023-05-05T14:30:52.580Z,99861.69
2023-05-05T14:33:19.874Z,99877.44
2023-05-05T14:35:47.360Z,99872.06
2023-05-05T14:38:20.562Z,99862.16
2023-05-05T14:40:48.312Z,99859.53
2023-05-05T14:43:18.390Z,99860.50
2023-05-05T14:45:51.148Z,99866.88
2023-05-05T14:48:26.155Z,99859.38
2023-05-05T14:50:55.242Z,99871.06
2023-05-05T14:53:31.970Z,99869.63
2023-05-05T14:56:10.239Z,99861.81
2023-05-05T14:58:37.752Z,99874.59
2023-05-05T15:01:05.351Z,99875.25
2023-05-05T15:03:33.289Z,99867.09
2023-05-05T15:06:00.829Z,99868.13
2023-05-05T15:08:29.738Z,99869.00
2023-05-05T15:10:57.178Z,99866.94
2023-05-05T15:13:24.742Z,99866.44
2023-05-05T15:15:52.107Z,99860.34
2023-05-05T15:18:19.526Z,99865.69
2023-05-05T15:20:46.891Z,99865.09
2023-05-05T15:23:14.264Z,99865.28
2023-05-05T15:25:43.241Z,99867.59
2023-05-05T15:28:10.598Z,99860.78
2023-05-05T15:30:38.032Z,99866.34
2023-05-05T15:33:05.859Z,99871.50
2023-05-05T15:35:33.366Z,99870.44
2023-05-05T15:38:00.724Z,99864.38
2023-05-05T15:40:28.126Z,99871.22
2023-05-05T15:42:57.556Z,99865.06
2023-05-05T15:45:25.124Z,99866.31
2023-05-05T15:47:53.831Z,99868.09
2023-05-05T15:50:21.993Z,99863.50
2023-05-05T15:52:50.144Z,99867.69
2023-05-05T15:55:17.748Z,99875.59
2023-05-05T15:57:45.096Z,99875.19
2023-05-05T16:00:15.144Z,99874.00
2023-05-05T16:02:42.664Z,99874.25
2023-05-05T16:05:10.775Z,99871.81
2023-05-05T16:07:38.467Z,99880.03
2023-05-05T16:10:06.874Z,99875.44
2023-05-05T16:12:34.167Z,99876.38
2023-05-05T16:15:01.777Z,99873.81
2023-05-05T16:17:33.535Z,99878.78
2023-05-05T16:20:00.992Z,99879.28
2023-05-05T16:22:30.686Z,99878.16
2023-05-05T16:24:58.123Z,99876.00
2023-05-05T16:27:26.602Z,99876.66
2023-05-05T16:29:54.017Z,99877.88
2023-05-05T16:32:28.367Z,99869.91
2023-05-05T16:35:09.381Z,99871.38
2023-05-05T16:37:37.128Z,99885.88
2023-05-05T16:40:23.600Z,99891.19
2023-05-05T16:42:53.185Z,99881.41
2023-05-05T16:45:20.454Z,99877.59
2023-05-05T16:47:56.689Z,99878.13
2023-05-05T16:50:33.562Z,99872.09
2023-05-05T16:53:01.059Z,99883.34
2023-05-05T16:55:28.509Z,99890.44
2023-05-05T16:57:56.309Z,99884.94
2023-05-05T17:00:23.862Z,99885.44
2023-05-05T17:02:51.314Z,99886.72
2023-05-05T17:05:18.839Z,99888.84
2023-05-05T17:07:50.365Z,99884.13
2023-05-05T17:10:17.878Z,99885.53
2023-05-05T17:12:45.356Z,99883.38
2023-05-05T17:15:12.881Z,99881.47
2023-05-05T17:17:42.341Z,99893.75
2023-05-05T17:20:12.185Z,99890.88
2023-05-05T17:22:40.033Z,99885.47
2023-05-05T17:25:10.195Z,99889.06
2023-05-05T17:27:37.938Z,99886.91
2023-05-05T17:30:06.828Z,99879.75
2023-05-05T17:32:34.460Z,99886.56
2023-05-05T17:35:01.893Z,99890.41
2023-05-05T17:37:32.447Z,99877.59
2023-05-05T17:39:59.928Z,99877.31
2023-05-05T17:42:33.108Z,99873.50
2023-05-05T17:45:00.790Z,99873.06
2023-05-05T17:47:28.473Z,99870.16
2023-05-05T17:49:56.919Z,99876.19
2023-05-05T17:52:24.832Z,99869.28
2023-05-05T17:54:52.670Z,99873.22
2023-05-05T17:57:21.307Z,99870.69
2023-05-05T17:59:50.581Z,99887.13
2023-05-05T18:02:19.200Z,99884.22
2023-05-05T18:04:46.734Z,99875.13
2023-05-05T18:07:14.861Z,99877.19
2023-05-05T18:09:42.460Z,99881.13
2023-05-05T18:12:09.712Z,99875.09
2023-05-05T18:14:37.194Z,99881.41
2023-05-05T18:17:06.128Z,99885.56
2023-05-05T18:19:33.406Z,99881.63
2023-05-05T18:22:00.949Z,99886.38
2023-05-05T18:24:28.360Z,99890.16
2023-05-05T18:26:55.703Z,99880.56
2023-05-05T18:29:23.142Z,99876.97
2023-05-05T18:31:53.037Z,99893.91
2023-05-05T18:34:22.195Z,99889.66
2023-05-05T18:36:51.407Z,99884.22
2023-05-05T18:39:19.354Z,99885.16
2023-05-05T18:41:46.965Z,99887.78
2023-05-05T18:44:14.354Z,99891.47
2023-05-05T18:46:43.357Z,99890.06
2023-05-05T18:49:10.683Z,99891.31
2023-05-05T18:51:39.596Z,99893.59
2023-05-05T18:54:07.002Z,99893.44
2023-05-05T18:56:34.553Z,99893.84
2023-05-05T18:59:02.005Z,99896.94
2023-05-05T19:01:29.511Z,99894.16
2023-05-05T19:03:57.177Z,99894.56
2023-05-05T19:06:24.653Z,99887.38
2023-05-05T19:08:53.624Z,99880.44
2023-05-05T19:11:21.002Z,99894.00
2023-05-05T19:13:48.420Z,99884.19
2023-05-05T19:16:16.031Z,99892.34
2023-05-05T19:18:43.738Z,99889.00
2023-05-05T19:21:11.205Z,99893.06
2023-05-05T19:23:38.911Z,99889.34
2023-05-05T19:26:07.780Z,99885.41
2023-05-05T19:28:35.115Z,99888.84
2023-05-05T19:31:02.602Z,99887.13
2023-05-05T19:33:30.017Z,99882.75
2023-05-05T19:35:57.544Z,99883.38
2023-05-05T19:38:25.053Z,99880.72
2023-05-05T19:40:54.171Z,99877.50
2023-05-05T19:43:23.435Z,99883.97
2023-05-05T19:45:50.763Z,99880.53
2023-05-05T19:48:18.206Z,99888.72
2023-05-05T19:50:45.572Z,99884.38
2023-05-05T19:53:13.010Z,99891.97
2023-05-05T19:55:46.317Z,99893.47
2023-05-05T19:58:14.181Z,99888.41
2023-05-05T20:00:43.114Z,99889.53
2023-05-05T20:03:11.223Z,99886.28
2023-05-05T20:05:38.930Z,99880.84
2023-05-05T20:08:06.344Z,99888.72
2023-05-05T20:10:33.803Z,99891.56
2023-05-05T20:13:01.392Z,99897.75
2023-05-05T20:15:28.895Z,99896.34
2023-05-05T20:17:58.308Z,99894.72
2023-05-05T20:20:25.888Z,99893.22
2023-05-05T20:22:53.605Z,99893.31
2023-05-05T20:25:20.931Z,99891.69
2023-05-05T20:27:48.527Z,99897.66
2023-05-05T20:30:16.240Z,99885.94
2023-05-05T20:32:43.643Z,99893.72
2023-05-05T20:35:15.927Z,99890.66
2023-05-05T20:37:45.257Z,99876.31
2023-05-05T20:40:13.710Z,99889.25
2023-05-05T20:42:41.330Z,99885.22
2023-05-05T20:45:10.741Z,99887.13
2023-05-05T20:47:38.331Z,99888.75
2023-05-05T20:50:09.773Z,99894.72
2023-05-05T20:52:58.930Z,99878.50
2023-05-05T20:55:42.811Z,99889.28
2023-05-05T20:58:10.161Z,99886.81
2023-05-05T21:00:37.515Z,99887.03
2023-05-05T21:03:05.147Z,99893.81
2023-05-05T21:05:32.723Z,99900.78
2023-05-05T21:08:01.967Z,99889.06
2023-05-05T21:10:29.462Z,99889.06
2023-05-05T21:12:57.018Z,99884.00
2023-05-05T21:15:25.073Z,99885.72
2023-05-05T21:17:52.422Z,99881.66
2023-05-05T21:20:20.078Z,99888.63
2023-05-05T21:22:47.314Z,99878.81
2023-05-05T21:25:17.324Z,99881.56
2023-05-05T21:27:45.009Z,99886.00
2023-05-05T21:30:13.105Z,99893.06
2023-05-05T21:32:41.331Z,99885.97
2023-05-05T21:35:09.565Z,99877.16
2023-05-05T21:37:37.560Z,99888.88
2023-05-05T21:40:06.152Z,99881.50
2023-05-05T21:42:35.562Z,99883.22
2023-05-05T21:45:03.228Z,99880.88
2023-05-05T21:47:32.213Z,99880.25
2023-05-05T21:49:59.663Z,99868.94
2023-05-05T21:52:27.095Z,99884.72
2023-05-05T21:54:54.529Z,99878.03
2023-05-05T21:57:22.044Z,99877.41
2023-05-05T21:59:51.043Z,99872.97
2023-05-05T22:02:18.596Z,99875.59
2023-05-05T22:04:48.788Z,99877.41
2023-05-05T22:07:16.495Z,99867.78
2023-05-05T22:09:43.865Z,99881.06
2023-05-05T22:12:11.576Z,99876.16
2023-05-05T22:14:39.093Z,99883.06
2023-05-05T22:17:07.987Z,99873.13
2023-05-05T22:19:35.333Z,99880.91
2023-05-05T22:22:03.071Z,99885.22
2023-05-05T22:24:30.612Z,99881.88
2023-05-05T22:26:58.387Z,99878.66
2023-05-05T22:29:47.152Z,99873.19
2023-05-05T22:32:16.092Z,99881.28
2023-05-05T22:34:43.408Z,99878.75
2023-05-05T22:37:10.774Z,99886.34
2023-05-05T22:39:38.427Z,99884.72
2023-05-05T22:42:06.078Z,99883.28
2023-05-05T22:44:33.415Z,99880.97
2023-05-05T22:47:01.207Z,99878.59
2023-05-05T22:49:30.137Z,99878.06
2023-05-05T22:51:57.974Z,99879.09
2023-05-05T22:54:25.423Z,99870.06
2023-05-05T22:56:52.901Z,99876.03
2023-05-05T22:59:20.507Z,99879.47
2023-05-05T23:01:48.206Z,99879.81
2023-05-05T23:04:15.889Z,99882.25
2023-05-05T23:06:45.085Z,99885.69
2023-05-05T23:09:12.923Z,99880.84
2023-05-05T23:11:40.488Z,99881.81
2023-05-05T23:14:07.942Z,99882.00
2023-05-05T23:16:35.313Z,99887.25
2023-05-05T23:19:02.811Z,99884.00
2023-05-05T23:21:32.071Z,99884.97
2023-05-05T23:24:02.710Z,99891.25
2023-05-05T23:26:30.777Z,99894.03
2023-05-05T23:28:58.272Z,99887.53
2023-05-05T23:31:26.012Z,99893.59
2023-05-05T23:33:53.445Z,99893.75
2023-05-05T23:36:20.693Z,99893.03
2023-05-05T23:38:48.250Z,99890.97
2023-05-05T23:41:18.443Z,99893.47
2023-05-05T23:43:45.837Z,99903.78
2023-05-05T23:46:13.399Z,99898.91
2023-05-05T23:48:40.860Z,99901.53
2023-05-05T23:51:08.449Z,99891.78
2023-05-05T23:53:35.853Z,99901.06
2023-05-05T23:56:03.514Z,99901.16
2023-05-05T23:58:32.469Z,99901.16
